Time;durP1;ratioP1;P1;durP2;ratioP2;P2;SDS_P1;SDS_P2;PMS_P1;PMS_P2;Temp;Humidity;BMP_temperature;BMP_pressure;BME280_temperature;BME280_humidity;BME280_pressure;Samples;Min_cycle;Max_cycle;Signal;HPM_P1;HPM_P2
2023/10/30 00:02:44;;;;;;;;;;;;;;;13.72;77.03;96970.84;4973515;28;20372;-77
2023/10/30 00:05:34;;;;;;;;;;;;;;;13.78;77.08;96977.59;4968816;28;19922;-77
2023/10/30 00:08:22;;;;;;;;;;;;;;;13.78;76.16;96980.34;4969534;28;19922;-77
2023/10/30 00:11:10;;;;;;;;;;;;;;;13.72;76.88;96981.75;4963170;28;19922;-76
2023/10/30 00:13:58;;;;;;;;;;;;;;;13.71;76.82;96986.44;4977914;28;20372;-76
2023/10/30 00:16:46;;;;;;;;;;;;;;;13.58;76.95;96980.28;4958642;28;19984;-76
2023/10/30 00:19:34;;;;;;;;;;;;;;;13.73;76.68;96994.25;4965754;28;19922;-76
2023/10/30 00:22:24;;;;;;;;;;;;;;;13.61;77.02;96985.03;4971756;28;19922;-77
2023/10/30 00:25:11;;;;;;;;;;;;;;;13.70;76.79;96995.78;4980633;28;19930;-76
2023/10/30 00:28:00;;;;;;;;;;;;;;;13.71;76.74;96996.56;4971748;28;19922;-76
2023/10/30 00:30:48;;;;;;;;;;;;;;;13.72;76.74;96992.69;4981666;28;19922;-77
2023/10/30 00:33:36;;;;;;;;;;;;;;;13.73;76.37;97005.16;4968830;28;19942;-77
2023/10/30 00:36:25;;;;;;;;;;;;;;;13.51;76.98;97007.38;4973630;28;19929;-76
2023/10/30 00:39:17;;;;;;;;;;;;;;;13.60;76.74;97024.38;4961339;28;20024;-77
2023/10/30 00:42:06;;;;;;;;;;;;;;;13.08;78.64;97019.91;4977567;28;19935;-76
2023/10/30 00:44:55;;;;;;;;;;;;;;;13.43;77.77;97027.47;4959017;28;19927;-77
2023/10/30 00:47:43;;;;;;;;;;;;;;;13.47;77.51;97025.59;4954973;28;19922;-76
2023/10/30 00:50:32;;;;;;;;;;;;;;;13.54;76.96;97028.53;4973400;28;19929;-77
2023/10/30 00:53:20;;;;;;;;;;;;;;;13.45;77.26;97025.16;4956725;28;19929;-76
2023/10/30 00:56:10;;;;;;;;;;;;;;;13.55;76.61;97032.03;4958160;28;20336;-77
2023/10/30 00:58:58;;;;;;;;;;;;;;;13.65;76.43;97025.28;4963658;28;19941;-76
2023/10/30 01:01:46;;;;;;;;;;;;;;;13.58;76.26;97032.13;4941323;29;20073;-77
2023/10/30 01:04:34;;;;;;;;;;;;;;;13.58;76.49;97034.88;4943458;29;19922;-76
2023/10/30 01:07:22;;;;;;;;;;;;;;;13.55;76.56;97041.03;4953215;28;19923;-77
2023/10/30 01:10:11;;;;;;;;;;;;;;;13.47;76.60;97036.50;4941961;28;20262;-77
2023/10/30 01:13:00;;;;;;;;;;;;;;;13.55;76.60;97046.47;4956926;29;20009;-77
2023/10/30 01:15:48;;;;;;;;;;;;;;;13.40;77.29;97051.91;4952620;28;19966;-76
2023/10/30 01:18:37;;;;;;;;;;;;;;;13.50;76.83;97041.28;4935336;29;19927;-77
2023/10/30 01:21:25;;;;;;;;;;;;;;;13.51;76.64;97048.31;4955165;28;19923;-77
2023/10/30 01:24:13;;;;;;;;;;;;;;;13.55;76.27;97051.16;4955696;28;20013;-76
2023/10/30 01:27:01;;;;;;;;;;;;;;;13.57;76.40;97057.81;4951186;28;19922;-77
2023/10/30 01:29:51;;;;;;;;;;;;;;;13.53;76.36;97056.97;4954655;29;19934;-77
2023/10/30 01:32:39;;;;;;;;;;;;;;;13.50;76.19;97056.88;4952120;28;20037;-77
2023/10/30 01:35:27;;;;;;;;;;;;;;;13.43;76.62;97057.47;4947114;29;19930;-76
2023/10/30 01:38:15;;;;;;;;;;;;;;;13.42;76.92;97066.78;4943668;28;20009;-76
2023/10/30 01:41:05;;;;;;;;;;;;;;;13.31;77.24;97052.06;4955729;29;19945;-77
2023/10/30 01:43:53;;;;;;;;;;;;;;;13.43;76.86;97052.03;4941848;29;19995;-77
2023/10/30 01:46:42;;;;;;;;;;;;;;;13.53;76.77;97056.13;4935139;29;19923;-77
2023/10/30 01:49:33;;;;;;;;;;;;;;;13.54;76.74;97050.34;4939960;29;19922;-76
2023/10/30 01:52:21;;;;;;;;;;;;;;;13.45;76.85;97049.72;4955614;29;19922;-77
2023/10/30 01:55:10;;;;;;;;;;;;;;;13.46;76.57;97062.22;4955324;28;19922;-77
2023/10/30 01:57:58;;;;;;;;;;;;;;;13.43;76.63;97062.16;4939756;28;19930;-77
2023/10/30 02:00:46;;;;;;;;;;;;;;;13.50;76.27;97062.31;4932143;28;19930;-77
2023/10/30 02:03:35;;;;;;;;;;;;;;;13.50;76.64;97057.66;4959828;28;19928;-77
2023/10/30 02:06:25;;;;;;;;;;;;;;;13.50;76.44;97057.66;4970415;28;20356;-77
2023/10/30 02:09:13;;;;;;;;;;;;;;;13.54;76.50;97053.09;4954859;28;20404;-77
2023/10/30 02:12:02;;;;;;;;;;;;;;;13.62;75.95;97065.75;4959972;28;20057;-77
2023/10/30 02:14:51;;;;;;;;;;;;;;;13.43;76.44;97065.66;4970918;28;19922;-77
2023/10/30 02:17:39;;;;;;;;;;;;;;;13.56;76.27;97072.63;4970390;28;20021;-76
2023/10/30 02:20:28;;;;;;;;;;;;;;;13.57;76.46;97059.75;4961142;28;19962;-77
2023/10/30 02:23:17;;;;;;;;;;;;;;;13.57;76.45;97059.75;4972140;28;19993;-77
2023/10/30 02:26:06;;;;;;;;;;;;;;;13.56;76.30;97056.25;4967457;28;19945;-76
2023/10/30 02:28:56;;;;;;;;;;;;;;;13.65;76.06;97058.81;4972367;28;19922;-76
2023/10/30 02:31:44;;;;;;;;;;;;;;;13.58;76.16;97066.78;4970672;28;19977;-76
2023/10/30 02:34:32;;;;;;;;;;;;;;;13.54;76.14;97058.53;4966269;28;19941;-77
2023/10/30 02:37:21;;;;;;;;;;;;;;;13.53;76.22;97050.69;4954390;28;19929;-77
2023/10/30 02:40:09;;;;;;;;;;;;;;;13.47;76.50;97052.88;4973333;28;19929;-76
2023/10/30 02:42:58;;;;;;;;;;;;;;;13.31;77.30;97055.59;4954619;28;19922;-77
2023/10/30 02:45:49;;;;;;;;;;;;;;;13.40;76.75;97047.25;4957024;28;20027;-76
2023/10/30 02:48:37;;;;;;;;;;;;;;;13.28;77.02;97050.84;4966876;28;19926;-77
2023/10/30 02:51:25;;;;;;;;;;;;;;;13.36;77.13;97040.91;4968595;28;19989;-77
2023/10/30 02:54:15;;;;;;;;;;;;;;;13.35;76.92;97042.06;4965089;28;19929;-77
2023/10/30 02:57:03;;;;;;;;;;;;;;;13.36;77.03;97038.97;4956084;28;19922;-76
2023/10/30 02:59:52;;;;;;;;;;;;;;;13.30;77.12;97047.75;4970991;28;19926;-76
2023/10/30 03:02:40;;;;;;;;;;;;;;;13.41;76.94;97061.69;4967747;28;19930;-77
2023/10/30 03:05:28;;;;;;;;;;;;;;;13.43;76.68;97057.47;4958926;28;19926;-76
2023/10/30 03:08:17;;;;;;;;;;;;;;;13.27;77.23;97052.00;4971955;28;19930;-77
2023/10/30 03:11:05;;;;;;;;;;;;;;;13.23;77.34;97047.59;4956664;28;19929;-76
2023/10/30 03:13:53;;;;;;;;;;;;;;;13.35;76.71;97055.69;4953639;28;19922;-76
2023/10/30 03:16:42;;;;;;;;;;;;;;;13.41;76.42;97051.56;4971521;28;20342;-76
2023/10/30 03:19:31;;;;;;;;;;;;;;;13.35;76.58;97036.59;4955499;28;20288;-77
2023/10/30 03:22:18;;;;;;;;;;;;;;;13.42;76.34;97030.53;4972904;28;19954;-77
2023/10/30 03:25:09;;;;;;;;;;;;;;;13.38;76.29;97041.38;4974107;28;20276;-76
2023/10/30 03:27:57;;;;;;;;;;;;;;;13.35;76.06;97044.78;4946616;28;19921;-76
2023/10/30 03:30:45;;;;;;;;;;;;;;;13.31;76.07;97050.13;4969653;28;20408;-76
2023/10/30 03:33:35;;;;;;;;;;;;;;;13.26;76.83;97063.25;4972075;28;19922;-77
2023/10/30 03:36:24;;;;;;;;;;;;;;;13.23;76.36;97059.28;4974593;28;20012;-77
2023/10/30 03:39:12;;;;;;;;;;;;;;;13.28;76.19;97045.41;4973914;28;20265;-77
2023/10/30 03:42:00;;;;;;;;;;;;;;;13.13;76.52;97042.59;4969373;28;19930;-77
2023/10/30 03:44:49;;;;;;;;;;;;;;;13.17;76.47;97036.13;4970044;28;19929;-76
2023/10/30 03:47:37;;;;;;;;;;;;;;;13.01;76.66;97033.34;4967715;28;19922;-77
2023/10/30 03:50:26;;;;;;;;;;;;;;;13.18;76.23;97034.97;4971618;28;19922;-76
2023/10/30 03:53:14;;;;;;;;;;;;;;;13.16;76.31;97039.19;4951972;28;19923;-77
2023/10/30 03:56:04;;;;;;;;;;;;;;;13.08;76.32;97032.75;4958249;28;19933;-77
2023/10/30 03:58:52;;;;;;;;;;;;;;;13.06;76.11;97027.66;4961720;28;19929;-77
2023/10/30 04:01:40;;;;;;;;;;;;;;;13.04;76.11;97038.09;4968632;28;20013;-77
2023/10/30 04:04:28;;;;;;;;;;;;;;;13.02;75.89;97032.19;4958483;28;19957;-77
2023/10/30 04:07:18;;;;;;;;;;;;;;;13.00;75.92;97020.06;4965138;28;19970;-77
2023/10/30 04:10:06;;;;;;;;;;;;;;;12.99;75.72;97027.44;4967866;28;20387;-77
2023/10/30 04:12:54;;;;;;;;;;;;;;;13.00;75.35;97025.53;4972693;28;19976;-76
2023/10/30 04:15:42;;;;;;;;;;;;;;;12.95;75.21;97028.50;4957885;28;19950;-77
2023/10/30 04:18:31;;;;;;;;;;;;;;;12.80;75.78;97032.75;4962422;28;19972;-77
2023/10/30 04:21:19;;;;;;;;;;;;;;;12.78;75.76;97026.84;4967925;28;19929;-77
2023/10/30 04:24:09;;;;;;;;;;;;;;;12.89;75.51;97027.13;4967599;28;19926;-76
2023/10/30 04:26:57;;;;;;;;;;;;;;;12.79;75.65;97018.34;4960672;28;19923;-76
2023/10/30 04:29:45;;;;;;;;;;;;;;;12.69;75.59;97012.59;4967441;28;19922;-77
2023/10/30 04:32:33;;;;;;;;;;;;;;;12.73;75.83;97019.72;4958089;28;19940;-77
2023/10/30 04:35:21;;;;;;;;;;;;;;;12.61;75.79;97010.78;4968022;28;19934;-77
2023/10/30 04:38:09;;;;;;;;;;;;;;;12.57;76.59;97014.22;4973005;28;20357;-77
2023/10/30 04:41:02;;;;;;;;;;;;;;;12.63;76.06;97022.16;4971146;28;19922;-76
2023/10/30 04:43:50;;;;;;;;;;;;;;;12.55;75.71;97021.94;4960206;28;19970;-76
2023/10/30 04:46:38;;;;;;;;;;;;;;;12.65;75.83;97019.88;4972406;28;20291;-77
2023/10/30 04:49:26;;;;;;;;;;;;;;;12.57;75.80;97021.63;4971448;28;20368;-76
2023/10/30 04:52:14;;;;;;;;;;;;;;;12.53;75.88;97021.50;4972739;28;19934;-76
2023/10/30 04:55:02;;;;;;;;;;;;;;;12.49;75.78;97017.09;4973199;28;20356;-77
2023/10/30 04:57:52;;;;;;;;;;;;;;;12.50;75.93;97005.84;4967647;28;20380;-77
2023/10/30 05:00:42;;;;;;;;;;;;;;;12.45;75.68;97000.63;4969285;28;19926;-76
2023/10/30 05:03:30;;;;;;;;;;;;;;;12.46;75.28;96995.97;4967939;28;19922;-77
2023/10/30 05:06:18;;;;;;;;;;;;;;;12.29;76.41;96995.09;4969653;28;19930;-77
2023/10/30 05:09:06;;;;;;;;;;;;;;;12.32;76.20;96985.47;4971665;28;20307;-76
2023/10/30 05:11:54;;;;;;;;;;;;;;;12.35;76.22;96982.03;4969224;28;19973;-77
2023/10/30 05:14:44;;;;;;;;;;;;;;;12.61;75.30;96995.22;4974350;28;20012;-76
2023/10/30 05:17:32;;;;;;;;;;;;;;;12.60;75.08;96982.75;4969684;28;19980;-77
2023/10/30 05:20:20;;;;;;;;;;;;;;;12.73;74.26;96986.22;4958499;28;19922;-77
2023/10/30 05:23:11;;;;;;;;;;;;;;;12.86;74.01;96979.56;4964295;28;20287;-77
2023/10/30 05:25:59;;;;;;;;;;;;;;;12.92;73.12;96980.13;4971662;28;19929;-76
2023/10/30 05:28:47;;;;;;;;;;;;;;;12.92;73.17;96983.63;4964758;28;19929;-77
2023/10/30 05:31:36;;;;;;;;;;;;;;;13.02;72.20;96969.50;4974006;28;19933;-76
2023/10/30 05:34:26;;;;;;;;;;;;;;;13.04;72.37;96964.47;4972053;28;19922;-77
2023/10/30 05:37:14;;;;;;;;;;;;;;;13.10;72.16;96965.81;4972870;28;20004;-76
2023/10/30 05:40:03;;;;;;;;;;;;;;;13.08;71.45;96970.81;4967023;28;19922;-77
2023/10/30 05:42:52;;;;;;;;;;;;;;;12.92;72.03;96989.09;4954718;28;19934;-77
2023/10/30 05:45:40;;;;;;;;;;;;;;;12.98;71.91;96982.22;4963882;28;19935;-77
2023/10/30 05:48:30;;;;;;;;;;;;;;;12.80;72.56;96986.44;4971387;28;19922;-76
2023/10/30 05:51:18;;;;;;;;;;;;;;;12.69;73.07;96996.25;4964446;28;19922;-76
2023/10/30 05:54:06;;;;;;;;;;;;;;;12.62;72.82;96990.56;4965491;28;19934;-77
2023/10/30 05:56:54;;;;;;;;;;;;;;;12.62;72.66;96987.84;4965505;28;19922;-77
2023/10/30 05:59:42;;;;;;;;;;;;;;;12.70;72.39;96976.81;4972268;28;20261;-77
2023/10/30 06:02:30;;;;;;;;;;;;;;;12.76;72.10;96975.41;4946497;28;19922;-77
2023/10/30 06:05:20;;;;;;;;;;;;;;;12.59;72.49;96968.34;4967687;28;19929;-77
2023/10/30 06:08:08;;;;;;;;;;;;;;;12.37;73.20;96973.53;4969739;28;19929;-76
2023/10/30 06:10:57;;;;;;;;;;;;;;;12.44;72.75;96960.91;4969195;28;19929;-76
2023/10/30 06:13:45;;;;;;;;;;;;;;;12.61;72.07;96967.19;4969704;28;19934;-76
2023/10/30 06:16:34;;;;;;;;;;;;;;;12.35;73.05;96976.59;4968948;28;19926;-77
2023/10/30 06:19:23;;;;;;;;;;;;;;;12.22;73.50;96966.88;4970036;28;19926;-76
2023/10/30 06:22:12;;;;;;;;;;;;;;;12.19;73.41;96973.81;4970801;28;19926;-76
2023/10/30 06:25:01;;;;;;;;;;;;;;;12.37;72.72;96996.13;4968886;28;20292;-76
2023/10/30 06:27:50;;;;;;;;;;;;;;;12.36;72.60;96999.19;4966440;28;20431;-76
2023/10/30 06:30:38;;;;;;;;;;;;;;;12.37;72.20;97007.03;4957391;28;19922;-76
2023/10/30 06:33:26;;;;;;;;;;;;;;;12.49;71.72;97009.69;4973570;28;20379;-77
2023/10/30 06:36:15;;;;;;;;;;;;;;;12.56;71.17;97004.44;4972563;28;19929;-76
2023/10/30 06:39:04;;;;;;;;;;;;;;;12.66;71.10;97016.00;4972316;28;20386;-77
2023/10/30 06:41:54;;;;;;;;;;;;;;;12.49;71.49;97020.59;4972973;28;19926;-76
2023/10/30 06:44:43;;;;;;;;;;;;;;;12.52;70.99;97019.91;4970021;28;19949;-76
2023/10/30 06:47:31;;;;;;;;;;;;;;;12.57;71.31;97014.22;4972952;28;20400;-77
2023/10/30 06:50:19;;;;;;;;;;;;;;;12.56;71.08;97026.25;4963060;28;19926;-76
2023/10/30 06:53:07;;;;;;;;;;;;;;;12.32;72.49;97026.31;4959381;28;20057;-76
2023/10/30 06:55:56;;;;;;;;;;;;;;;12.36;71.88;97004.63;4968162;28;19945;-76
2023/10/30 06:58:44;;;;;;;;;;;;;;;11.98;73.44;96990.28;4966094;28;19929;-76
2023/10/30 07:01:39;;;;;;;;;;;;;;;12.38;72.13;96986.81;4959600;28;20013;-77
2023/10/30 07:04:27;;;;;;;;;;;;;;;12.34;72.39;96983.19;4962172;28;19922;-76
2023/10/30 07:07:26;;;;;;;;;;;;;;;12.58;71.46;96995.94;5063529;27;3444420;-79
2023/10/30 07:10:14;;;;;;;;;;;;;;;12.59;71.36;97013.88;5119089;27;19929;-75
2023/10/30 07:13:02;;;;;;;;;;;;;;;12.54;72.04;97012.19;5123244;27;19930;-75
2023/10/30 07:15:50;;;;;;;;;;;;;;;12.63;71.56;97027.59;5118966;27;19930;-74
2023/10/30 07:18:39;;;;;;;;;;;;;;;12.35;72.50;97014.72;5131133;27;19923;-75
2023/10/30 07:21:28;;;;;;;;;;;;;;;12.42;73.08;97006.78;5125286;27;19930;-77
2023/10/30 07:24:18;;;;;;;;;;;;;;;12.53;72.61;96999.72;5118204;27;20585;-76
2023/10/30 07:27:06;;;;;;;;;;;;;;;12.57;72.79;97011.50;5134844;27;19935;-76
2023/10/30 07:29:54;;;;;;;;;;;;;;;12.62;72.65;97013.16;5122297;27;20402;-76
2023/10/30 07:32:43;;;;;;;;;;;;;;;12.64;72.67;97021.00;5122349;27;20439;-76
2023/10/30 07:35:32;;;;;;;;;;;;;;;12.67;72.79;97020.31;5122440;28;20319;-76
2023/10/30 07:38:20;;;;;;;;;;;;;;;12.70;72.76;97025.06;5143566;27;19929;-76
2023/10/30 07:41:09;;;;;;;;;;;;;;;12.79;72.63;97028.47;5129773;27;20404;-76
2023/10/30 07:43:59;;;;;;;;;;;;;;;12.91;72.30;97022.94;5146199;27;20275;-75
2023/10/30 07:46:47;;;;;;;;;;;;;;;12.78;72.96;97010.50;5128505;27;19939;-75
2023/10/30 07:49:36;;;;;;;;;;;;;;;12.85;72.83;97016.16;5123888;27;19932;-75
2023/10/30 07:52:24;;;;;;;;;;;;;;;12.87;72.91;97011.16;5117425;27;19928;-75
2023/10/30 07:55:13;;;;;;;;;;;;;;;13.04;72.29;97013.56;5126498;27;19932;-76
2023/10/30 07:58:04;;;;;;;;;;;;;;;13.11;72.22;97004.78;5127955;27;19923;-76
2023/10/30 08:00:53;;;;;;;;;;;;;;;13.13;72.08;96996.25;5115769;27;20010;-76
2023/10/30 08:03:45;;;;;;;;;;;;;;;13.10;72.19;97005.91;5135028;27;19934;-75
2023/10/30 08:06:34;;;;;;;;;;;;;;;13.06;72.89;97008.56;5129336;27;19931;-75
2023/10/30 08:09:22;;;;;;;;;;;;;;;13.09;72.73;97015.22;5126988;27;19931;-75
2023/10/30 08:12:10;;;;;;;;;;;;;;;13.11;72.82;97002.84;5115526;27;19934;-80
2023/10/30 08:14:59;;;;;;;;;;;;;;;13.25;72.49;97007.09;5135842;27;20019;-76
2023/10/30 08:17:48;;;;;;;;;;;;;;;13.31;72.27;97000.25;5135383;27;19969;-75
2023/10/30 08:20:36;;;;;;;;;;;;;;;13.32;72.64;96996.41;5102382;27;19923;-75
2023/10/30 08:23:24;;;;;;;;;;;;;;;13.52;71.73;97000.78;5105436;27;19928;-76
2023/10/30 08:26:12;;;;;;;;;;;;;;;13.60;71.81;97013.47;5135098;27;19962;-75
2023/10/30 08:29:00;;;;;;;;;;;;;;;13.68;71.04;97008.16;5102167;27;20283;-76
2023/10/30 08:31:50;;;;;;;;;;;;;;;13.70;70.54;97020.34;5119583;27;20314;-76
2023/10/30 08:34:38;;;;;;;;;;;;;;;13.70;70.67;97023.06;5114293;27;20407;-76
2023/10/30 08:37:27;;;;;;;;;;;;;;;13.76;70.27;97023.59;5125653;27;19928;-79
2023/10/30 08:40:17;;;;;;;;;;;;;;;13.78;69.93;97016.63;5116283;27;20027;-80
2023/10/30 08:43:05;;;;;;;;;;;;;;;13.87;70.86;97016.44;5120526;27;20271;-81
2023/10/30 08:45:55;;;;;;;;;;;;;;;13.93;70.06;97014.22;5115958;27;19924;-82
2023/10/30 08:48:46;;;;;;;;;;;;;;;13.95;70.75;97009.97;5107543;28;20016;-80
2023/10/30 08:51:39;;;;;;;;;;;;;;;13.95;71.27;97004.53;5121119;27;19990;-77
2023/10/30 08:54:34;;;;;;;;;;;;;;;13.76;70.82;96993.56;5106559;28;20012;-76
2023/10/30 08:57:22;;;;;;;;;;;;;;;13.93;70.11;96995.91;5122128;27;19932;-79
2023/10/30 09:00:11;;;;;;;;;;;;;;;13.98;70.35;97001.09;5113434;27;19928;-77
2023/10/30 09:02:59;;;;;;;;;;;;;;;14.04;70.20;96994.22;5128309;27;19923;-79
2023/10/30 09:05:49;;;;;;;;;;;;;;;14.18;70.12;96990.22;5110711;27;19930;-79
2023/10/30 09:08:37;;;;;;;;;;;;;;;14.24;70.11;96983.31;5098779;28;19973;-76
2023/10/30 09:11:25;;;;;;;;;;;;;;;13.96;69.76;96987.00;5112841;28;20409;-77
2023/10/30 09:14:14;;;;;;;;;;;;;;;14.09;70.16;96985.75;5125611;27;19924;-77
2023/10/30 09:17:02;;;;;;;;;;;;;;;13.89;69.86;96973.19;5101919;27;19924;-77
2023/10/30 09:19:50;;;;;;;;;;;;;;;14.00;69.85;96965.22;5103740;27;19930;-77
2023/10/30 09:22:40;;;;;;;;;;;;;;;14.22;69.34;96958.28;5127477;27;19953;-77
2023/10/30 09:25:28;;;;;;;;;;;;;;;14.33;69.48;96948.41;5128337;27;19964;-77
2023/10/30 09:28:17;;;;;;;;;;;;;;;14.37;70.10;96951.97;5131746;27;19924;-77
2023/10/30 09:31:05;;;;;;;;;;;;;;;14.40;69.99;96943.06;5119978;27;19923;-77
2023/10/30 09:33:53;;;;;;;;;;;;;;;14.34;70.57;96936.31;5135501;27;19924;-77
2023/10/30 09:36:43;;;;;;;;;;;;;;;14.29;69.62;96931.13;5109947;27;19923;-77
2023/10/30 09:39:33;;;;;;;;;;;;;;;14.46;70.16;96919.75;5129986;27;19924;-77
2023/10/30 09:42:22;;;;;;;;;;;;;;;14.64;69.49;96928.31;5131493;27;19930;-77
2023/10/30 09:45:10;;;;;;;;;;;;;;;14.71;68.59;96922.22;5111124;27;19934;-77
2023/10/30 09:47:58;;;;;;;;;;;;;;;14.80;69.38;96920.81;5115285;27;19930;-77
2023/10/30 09:50:46;;;;;;;;;;;;;;;14.89;69.49;96917.88;5132135;27;19924;-77
2023/10/30 09:53:35;;;;;;;;;;;;;;;14.98;68.39;96910.22;5130195;27;19931;-77
2023/10/30 09:56:25;;;;;;;;;;;;;;;15.04;68.37;96919.69;5129048;27;20290;-78
2023/10/30 09:59:16;;;;;;;;;;;;;;;14.91;67.10;96923.75;5124212;27;19931;-77
2023/10/30 10:02:04;;;;;;;;;;;;;;;15.08;67.19;96917.81;5127569;27;19923;-77
2023/10/30 10:04:53;;;;;;;;;;;;;;;15.03;67.17;96912.66;5129414;27;20010;-78
2023/10/30 10:07:41;;;;;;;;;;;;;;;15.13;67.30;96914.78;5113238;27;20414;-78
2023/10/30 10:10:29;;;;;;;;;;;;;;;15.24;65.67;96909.50;5129671;27;20037;-78
2023/10/30 10:13:21;;;;;;;;;;;;;;;15.34;65.37;96910.78;5129168;27;19927;-77
2023/10/30 10:16:11;;;;;;;;;;;;;;;15.28;64.43;96913.06;5126609;27;19972;-78
2023/10/30 10:18:59;;;;;;;;;;;;;;;15.24;63.83;96916.91;5115395;27;19923;-78
2023/10/30 10:21:48;;;;;;;;;;;;;;;15.22;63.65;96911.78;5127424;27;19930;-78
2023/10/30 10:24:37;;;;;;;;;;;;;;;15.28;61.54;96912.28;5103644;28;19949;-78
2023/10/30 10:27:25;;;;;;;;;;;;;;;15.39;61.14;96907.75;5115178;27;20295;-77
2023/10/30 10:30:18;;;;;;;;;;;;;;;15.35;62.11;96912.41;5110331;27;19923;-78
2023/10/30 10:33:06;;;;;;;;;;;;;;;15.38;61.89;96895.22;5106089;27;19931;-78
2023/10/30 10:35:55;;;;;;;;;;;;;;;15.50;62.20;96884.09;5103124;27;20267;-78
2023/10/30 10:38:53;;;;;;;;;;;;;;;15.56;60.90;96873.63;5108192;27;19924;-78
2023/10/30 10:41:42;;;;;;;;;;;;;;;15.61;61.15;96871.34;5114504;27;19950;-77
2023/10/30 10:44:31;;;;;;;;;;;;;;;15.56;61.44;96868.94;5116000;27;20546;-78
2023/10/30 10:47:21;;;;;;;;;;;;;;;15.71;61.34;96865.28;5116401;27;19923;-78
2023/10/30 10:50:09;;;;;;;;;;;;;;;15.74;61.43;96857.47;5105642;27;20499;-78
2023/10/30 10:52:57;;;;;;;;;;;;;;;15.74;61.04;96852.00;5100555;27;19932;-77
2023/10/30 10:55:46;;;;;;;;;;;;;;;15.84;62.77;96845.88;5103856;27;20255;-78
2023/10/30 10:58:38;;;;;;;;;;;;;;;15.90;62.11;96833.44;5106798;27;19923;-78
2023/10/30 11:01:26;;;;;;;;;;;;;;;15.93;61.68;96830.75;5108176;27;19923;-78
2023/10/30 11:04:18;;;;;;;;;;;;;;;16.03;61.48;96832.00;5107729;28;20015;-78
2023/10/30 11:07:07;;;;;;;;;;;;;;;16.10;62.20;96825.84;5110214;28;19930;-77
2023/10/30 11:09:57;;;;;;;;;;;;;;;16.13;61.85;96817.66;5111065;28;20010;-78
2023/10/30 11:12:49;;;;;;;;;;;;;;;16.21;61.91;96808.34;5107681;28;19945;-78
2023/10/30 11:15:38;;;;;;;;;;;;;;;16.21;61.81;96813.06;5115118;28;19931;-78
2023/10/30 11:18:27;;;;;;;;;;;;;;;16.12;61.36;96807.84;5100864;28;19961;-78
2023/10/30 11:21:17;;;;;;;;;;;;;;;16.15;61.79;96806.34;5105207;28;19931;-78
2023/10/30 11:24:05;;;;;;;;;;;;;;;16.07;61.92;96791.75;5122694;28;19949;-78
2023/10/30 11:26:54;;;;;;;;;;;;;;;16.20;61.75;96806.78;5109570;28;19923;-78
2023/10/30 11:29:57;;;;;;;;;;;;;;;16.20;60.91;96787.59;5114949;28;19985;-78
2023/10/30 11:32:56;;;;;;;;;;;;;;;16.22;61.68;96789.97;5130090;28;20386;-78
2023/10/30 11:35:45;;;;;;;;;;;;;;;16.30;61.15;96785.34;5113398;28;20020;-78
2023/10/30 11:38:48;;;;;;;;;;;;;;;16.32;60.72;96783.81;5113851;28;19931;-78
2023/10/30 11:41:37;;;;;;;;;;;;;;;16.46;60.63;96772.22;5109674;28;19924;-79
2023/10/30 11:44:29;;;;;;;;;;;;;;;16.52;60.09;96772.66;5117810;28;20076;-79
2023/10/30 11:47:19;;;;;;;;;;;;;;;16.55;60.04;96769.91;5104150;28;20014;-78
2023/10/30 11:50:07;;;;;;;;;;;;;;;16.68;59.04;96756.72;5102609;28;19937;-78
2023/10/30 11:52:58;;;;;;;;;;;;;;;16.74;58.68;96753.28;5110863;28;19932;-78
2023/10/30 11:55:48;;;;;;;;;;;;;;;16.77;57.94;96738.78;5110925;27;19924;-78
2023/10/30 11:58:36;;;;;;;;;;;;;;;16.81;58.26;96738.84;5131488;27;19923;-78
2023/10/30 12:01:24;;;;;;;;;;;;;;;16.82;58.43;96728.63;5111419;27;20023;-78
2023/10/30 12:04:20;;;;;;;;;;;;;;;16.79;57.25;96712.97;5111710;27;19923;-78
2023/10/30 12:07:08;;;;;;;;;;;;;;;16.72;57.16;96713.69;5107427;27;20439;-77
2023/10/30 12:09:56;;;;;;;;;;;;;;;16.73;57.33;96718.81;5102846;28;20294;-78
2023/10/30 12:12:48;;;;;;;;;;;;;;;16.73;55.38;96705.09;5114636;27;19923;-78
2023/10/30 12:15:37;;;;;;;;;;;;;;;16.68;56.12;96708.16;5109868;27;19924;-77
2023/10/30 12:18:26;;;;;;;;;;;;;;;16.73;56.56;96705.09;5101872;27;20052;-78
2023/10/30 12:21:15;;;;;;;;;;;;;;;16.75;56.50;96700.00;5106441;27;19924;-78
2023/10/30 12:24:10;;;;;;;;;;;;;;;16.68;56.22;96685.44;5122129;27;19924;-78
2023/10/30 12:26:58;;;;;;;;;;;;;;;16.73;57.15;96682.38;5131947;27;20451;-78
2023/10/30 12:29:52;;;;;;;;;;;;;;;16.62;55.59;96671.28;5109703;27;20026;-77
2023/10/30 12:32:41;;;;;;;;;;;;;;;16.56;55.82;96667.31;5114648;27;20401;-77
2023/10/30 12:35:30;;;;;;;;;;;;;;;16.49;55.70;96661.78;5115369;27;20397;-77
2023/10/30 12:38:18;;;;;;;;;;;;;;;16.52;56.27;96661.03;5115100;27;19924;-77
2023/10/30 12:41:07;;;;;;;;;;;;;;;16.54;55.82;96650.47;5120669;27;19924;-78
2023/10/30 12:43:56;;;;;;;;;;;;;;;16.40;56.38;96653.09;5118297;27;19930;-77
2023/10/30 12:46:48;;;;;;;;;;;;;;;16.48;56.74;96657.47;5099517;28;19931;-77
2023/10/30 12:49:37;;;;;;;;;;;;;;;16.44;56.65;96631.97;5112255;27;20402;-79
2023/10/30 12:52:25;;;;;;;;;;;;;;;16.47;56.90;96642.97;5101555;28;19924;-78
2023/10/30 12:55:14;;;;;;;;;;;;;;;16.44;55.65;96627.28;5111430;27;19924;-78
2023/10/30 12:58:02;;;;;;;;;;;;;;;16.30;56.81;96608.00;5100566;27;20398;-78
2023/10/30 13:00:52;;;;;;;;;;;;;;;16.34;56.88;96610.75;5113954;27;20428;-78
2023/10/30 13:03:46;;;;;;;;;;;;;;;16.38;57.58;96606.09;5104553;28;20085;-78
2023/10/30 13:06:35;;;;;;;;;;;;;;;16.29;56.97;96589.19;5111163;27;20279;-78
2023/10/30 13:09:23;;;;;;;;;;;;;;;16.27;57.62;96572.34;5105954;27;20024;-78
2023/10/30 13:12:12;;;;;;;;;;;;;;;16.28;56.65;96582.91;5105060;27;19927;-78
2023/10/30 13:15:04;;;;;;;;;;;;;;;16.31;57.88;96598.63;5108683;28;19924;-78
2023/10/30 13:17:52;;;;;;;;;;;;;;;16.30;57.62;96594.31;5116171;27;19927;-78
2023/10/30 13:20:42;;;;;;;;;;;;;;;16.31;57.71;96584.13;5112957;27;20417;-78
2023/10/30 13:23:31;;;;;;;;;;;;;;;16.35;58.51;96590.41;5101224;28;20071;-78
2023/10/30 13:26:21;;;;;;;;;;;;;;;16.36;58.59;96592.00;5125672;27;19923;-79
2023/10/30 13:29:09;;;;;;;;;;;;;;;16.38;57.86;96595.13;5111675;27;19967;-79
2023/10/30 13:31:57;;;;;;;;;;;;;;;16.38;58.40;96595.13;5104115;27;19924;-78
2023/10/30 13:34:46;;;;;;;;;;;;;;;16.36;58.19;96594.72;5121499;27;19947;-78
2023/10/30 13:37:36;;;;;;;;;;;;;;;16.18;58.10;96576.19;5117563;27;19924;-79
2023/10/30 13:40:24;;;;;;;;;;;;;;;16.24;58.36;96568.41;5108808;27;20496;-78
2023/10/30 13:43:13;;;;;;;;;;;;;;;16.22;57.80;96555.09;5114660;27;19934;-78
2023/10/30 13:46:01;;;;;;;;;;;;;;;16.19;58.14;96546.84;5125805;27;19929;-78
2023/10/30 13:48:49;;;;;;;;;;;;;;;16.23;58.04;96544.91;5105127;27;19930;-78
2023/10/30 13:51:38;;;;;;;;;;;;;;;16.18;57.60;96535.09;5109905;27;20379;-78
2023/10/30 13:54:30;;;;;;;;;;;;;;;16.20;58.02;96537.47;5115958;27;20398;-78
2023/10/30 13:57:20;;;;;;;;;;;;;;;16.19;58.85;96525.72;5107790;27;19923;-78
2023/10/30 14:00:09;;;;;;;;;;;;;;;16.23;59.14;96512.03;5101262;27;19930;-78
2023/10/30 14:02:57;;;;;;;;;;;;;;;16.14;58.01;96509.63;5112228;27;20020;-78
2023/10/30 14:05:45;;;;;;;;;;;;;;;16.20;57.78;96518.28;5110641;27;20463;-77
2023/10/30 14:08:34;;;;;;;;;;;;;;;16.21;58.75;96520.63;5112658;27;19923;-78
2023/10/30 14:11:25;;;;;;;;;;;;;;;16.16;58.47;96512.78;5106664;27;19928;-78
2023/10/30 14:14:13;;;;;;;;;;;;;;;16.12;57.92;96511.97;5112178;27;19923;-78
2023/10/30 14:17:03;;;;;;;;;;;;;;;16.10;58.15;96511.56;5086829;27;19928;-84
2023/10/30 14:19:51;;;;;;;;;;;;;;;16.06;58.16;96509.97;5118122;27;19923;-77
2023/10/30 14:22:39;;;;;;;;;;;;;;;16.13;58.42;96499.81;5107123;27;19923;-78
2023/10/30 14:25:29;;;;;;;;;;;;;;;16.05;57.79;96500.19;5101798;27;20306;-76
2023/10/30 14:28:20;;;;;;;;;;;;;;;16.13;58.55;96490.81;5115844;27;19946;-78
2023/10/30 14:31:10;;;;;;;;;;;;;;;15.93;58.33;96487.59;5124713;27;20570;-79
2023/10/30 14:33:59;;;;;;;;;;;;;;;15.85;58.59;96485.94;5097227;27;19924;-78
2023/10/30 14:36:47;;;;;;;;;;;;;;;15.93;58.97;96487.59;5102915;27;19924;-77
2023/10/30 14:39:36;;;;;;;;;;;;;;;15.98;58.97;96484.47;5130409;27;19923;-77
2023/10/30 14:42:27;;;;;;;;;;;;;;;15.94;59.05;96484.44;5120151;27;20026;-77